Blauzac, France

3:21 PM CEST on July 23, 2017 (GMT +0200)
Allée des Platanes | | Change Station

Elev 1322 ft 44.14 °N, 2.17 °E | Updated 10 minutes ago

Partly Cloudy
Partly Cloudy
72.5 °F
Feels Like 75 °F
N
0.6
Wind Variable Wind from NE
Gusts 2.5 mph

Today
High -- | Low -- °F
--% Chance of Precip.
Yesterday
High -- | Low -- °F
Precip. -- in
Pressure 30.18 in
Visibility 6.2 miles
Clouds Mostly Cloudy 3200 ft
Mostly Cloudy 3800 ft
Heat Index 75 °F
Dew Point 61 °F
Humidity 67%
Rainfall 0.00 in
Snow Depth Not available.
6:29 AM 9:25 PM
New Moon, 0% visible
METAR LFCR 231300Z AUTO VRB06KT 9999 BKN032 BKN038 20/12 Q1022 NOSIG
Pressure 30.18 in
Visibility 6.2 miles
Clouds Mostly Cloudy 3200 ft
Mostly Cloudy 3800 ft
Heat Index 75 °F
Dew Point 61 °F
Humidity 67%
Rainfall 0.00 in
Snow Depth Not available.
6:29 AM 9:25 PM
New Moon, 0% visible
METAR LFCR 231300Z AUTO VRB06KT 9999 BKN032 BKN038 20/12 Q1022 NOSIG

Get Severe Weather Alerts

Thanks for signing up!

Be on the lookout for a verification email in your inbox.

You'll start receiving the daily forecast at 6 AM.

×

10-Day Weather Forecast

×

Almanac

Astronomy

Jul. 23, 2017 Rise Set
Actual Time
Civil Twilight
Nautical Twilight
Astronomical Twilight
Moon
Length of Visible Light
Length of Day
Tomorrow will be .
, % of the Moon is Illuminated

Today's Extremes

Country Highs Country Lows

Community

WunderPhotos

Category 6

Welcome to Category 6. This is the collective home for Weather Underground's featured writeups by Dr. Jeff Masters (right), Bob Henson (left), Chris Burt, and other regular contributors.

Nearby

Air Quality

  Air Quality AQ Index Pollutant
Not available.

Snow Depth

Station Depth Elevation

Earthquake Activity

City Distance Mag. Time & Date
Minimum magnitude displayed is 2.5.

Coastal Water Temperatures

Place Temperature

Stations

Nearby Weather Stations

Station Location Temp. Windchill Dew Point Humidity Wind Precip. Elev Updated Type